Observation data for Hart on 01/13/2021      Previous  Date  Next       Current Mesonet Observations  Soil Data  Daily Summary Page  Observations in Plain Language
KHRS 130600Z 25008KT M03/M04 A3016 RMK A01 T10301038  RH  095%=      5-min Rain = 0
KHRS 130605Z 25008KT M03/M04 A3016 RMK A01 T10321040  RH  095%=      5-min Rain = 0
KHRS 130610Z 26008KT M03/M04 A3016 RMK A01 T10331041  RH  096%=      5-min Rain = 0
KHRS 130615Z 26007KT M03/M04 A3016 RMK A01 T10331040  RH  096%=      5-min Rain = 0
KHRS 130620Z 26007KT M03/M04 A3016 RMK A01 T10331040  RH  096%=      5-min Rain = 0
KHRS 130625Z 26006KT M03/M04 A3015 RMK A01 T10341042  RH  096%=      5-min Rain = 0
KHRS 130630Z 26006KT M03/M04 A3015 RMK A01 T10321038  RH  096%=      5-min Rain = 0
KHRS 130635Z 26006KT M03/M04 A3015 RMK A01 T10311038  RH  096%=      5-min Rain = 0
KHRS 130640Z 26007KT M03/M04 A3015 RMK A01 T10321041  RH  095%=      5-min Rain = 0
KHRS 130645Z 26008KT M04/M04 A3015 RMK A01 T10351043  RH  095%=      5-min Rain = 0
KHRS 130650Z 26008KT M04/M04 A3016 RMK A01 T10361044  RH  095%=      5-min Rain = 0
KHRS 130655Z 26008KT M04/M05 A3016 RMK A01 T10391047  RH  095%=      5-min Rain = 0
KHRS 130700Z 26008KT M04/M05 A3016 RMK A01 T10401047  RH  096%=      5-min Rain = 0
KHRS 130705Z 26008KT M04/M05 A3016 RMK A01 T10381045  RH  096%=      5-min Rain = 0
KHRS 130710Z 26008KT M04/M05 A3016 RMK A01 T10381046  RH  096%=      5-min Rain = 0
KHRS 130715Z 26008KT M04/M05 A3016 RMK A01 T10391046  RH  096%=      5-min Rain = 0
KHRS 130720Z 27008KT M04/M05 A3016 RMK A01 T10391046  RH  096%=      5-min Rain = 0
KHRS 130725Z 27008KT M04/M05 A3016 RMK A01 T10381045  RH  096%=      5-min Rain = 0
KHRS 130730Z 26007KT M04/M04 A3016 RMK A01 T10371044  RH  095%=      5-min Rain = 0
KHRS 130735Z 26007KT M04/M05 A3016 RMK A01 T10371045  RH  095%=      5-min Rain = 0
KHRS 130740Z 27006KT M04/M05 A3016 RMK A01 T10371046  RH  095%=      5-min Rain = 0
KHRS 130745Z 27008KT M04/M05 A3015 RMK A01 T10371045  RH  095%=      5-min Rain = 0
KHRS 130750Z 27008KT M04/M05 A3015 RMK A01 T10361045  RH  095%=      5-min Rain = 0
KHRS 130755Z 26008KT M04/M05 A3015 RMK A01 T10371046  RH  094%=      5-min Rain = 0
KHRS 130800Z 26009KT M04/M05 A3014 RMK A01 T10371046  RH  094%=      5-min Rain = 0
KHRS 130805Z 26010KT M03/M04 A3014 RMK A01 T10341044  RH  094%=      5-min Rain = 0
KHRS 130810Z 26010KT M03/M04 A3014 RMK A01 T10321042  RH  094%=      5-min Rain = 0
KHRS 130815Z 27010KT M03/M04 A3014 RMK A01 T10311042  RH  093%=      5-min Rain = 0
KHRS 130820Z 27010KT M03/M04 A3014 RMK A01 T10301042  RH  093%=      5-min Rain = 0
KHRS 130825Z 27010KT M03/M04 A3014 RMK A01 T10301042  RH  092%=      5-min Rain = 0
KHRS 130830Z 27009KT M03/M04 A3014 RMK A01 T10311043  RH  092%=      5-min Rain = 0
KHRS 130835Z 27009KT M03/M04 A3014 RMK A01 T10311043  RH  092%=      5-min Rain = 0
KHRS 130840Z 27009KT M03/M04 A3014 RMK A01 T10311044  RH  092%=      5-min Rain = 0
KHRS 130845Z 26009KT M03/M05 A3014 RMK A01 T10321045  RH  092%=      5-min Rain = 0
KHRS 130850Z 26009KT M03/M05 A3014 RMK A01 T10341047  RH  092%=      5-min Rain = 0
KHRS 130855Z 26009KT M03/M05 A3013 RMK A01 T10341047  RH  092%=      5-min Rain = 0
KHRS 130900Z 26008KT M04/M05 A3013 RMK A01 T10351048  RH  092%=      5-min Rain = 0
KHRS 130905Z 26008KT M04/M05 A3013 RMK A01 T10371049  RH  092%=      5-min Rain = 0
KHRS 130910Z 26008KT M04/M05 A3012 RMK A01 T10371049  RH  092%=      5-min Rain = 0
KHRS 130915Z 25008KT M04/M05 A3012 RMK A01 T10361048  RH  092%=      5-min Rain = 0
KHRS 130920Z 25009KT M03/M05 A3012 RMK A01 T10321045  RH  092%=      5-min Rain = 0
KHRS 130925Z 25009KT M03/M04 A3012 RMK A01 T10291043  RH  091%=      5-min Rain = 0
KHRS 130930Z 24010KT M03/M04 A3011 RMK A01 T10281044  RH  090%=      5-min Rain = 0
KHRS 130935Z 25010KT M03/M05 A3011 RMK A01 T10311048  RH  089%=      5-min Rain = 0
KHRS 130940Z 25010KT M04/M05 A3011 RMK A01 T10361052  RH  090%=      5-min Rain = 0
KHRS 130945Z 25010KT M04/M05 A301 RMK A01 T10381051  RH  091%=      5-min Rain = 0
KHRS 130950Z 25010KT M04/M05 A301 RMK A01 T10361049  RH  092%=      5-min Rain = 0
KHRS 130955Z 25010KT M04/M05 A301 RMK A01 T10351050  RH  091%=      5-min Rain = 0
KHRS 131000Z 24010KT M03/M05 A3009 RMK A01 T10341049  RH  091%=      5-min Rain = 0
KHRS 131005Z 25011KT M03/M05 A3009 RMK A01 T10321048  RH  090%=      5-min Rain = 0
KHRS 131010Z 25011KT M03/M05 A3009 RMK A01 T10321048  RH  090%=      5-min Rain = 0
KHRS 131015Z 25011KT M03/M05 A3009 RMK A01 T10311047  RH  090%=      5-min Rain = 0
KHRS 131020Z 25011KT M03/M05 A3009 RMK A01 T10311048  RH  089%=      5-min Rain = 0
KHRS 131025Z 25011KT M03/M05 A3008 RMK A01 T10321049  RH  089%=      5-min Rain = 0
KHRS 131030Z 25012KT M03/M05 A3008 RMK A01 T10321049  RH  089%=      5-min Rain = 0
KHRS 131035Z 25011KT M04/M05 A3008 RMK A01 T10351051  RH  090%=      5-min Rain = 0
KHRS 131040Z 25011KT M04/M05 A3008 RMK A01 T10351051  RH  090%=      5-min Rain = 0
KHRS 131045Z 25011KT M04/M05 A3008 RMK A01 T10371051  RH  091%=      5-min Rain = 0
KHRS 131050Z 25011KT M04/M05 A3008 RMK A01 T10381052  RH  091%=      5-min Rain = 0
KHRS 131055Z 26011KT M04/M05 A3008 RMK A01 T10381052  RH  091%=      5-min Rain = 0
KHRS 131100Z 26011KT M04/M05 A3008 RMK A01 T10391053  RH  091%=      5-min Rain = 0
KHRS 131105Z 26012KT M04/M05 A3008 RMK A01 T10411054  RH  092%=      5-min Rain = 0
KHRS 131110Z 26011KT M04/M05 A3008 RMK A01 T10421054  RH  092%=      5-min Rain = 0
KHRS 131115Z 26011KT M04/M06 A3007 RMK A01 T10421055  RH  092%=      5-min Rain = 0
KHRS 131120Z 25012KT M04/M06 A3006 RMK A01 T10431055  RH  092%=      5-min Rain = 0
KHRS 131125Z 25012KT M04/M06 A3006 RMK A01 T10421055  RH  092%=      5-min Rain = 0
KHRS 131130Z 26012KT M04/M06 A3006 RMK A01 T10421056  RH  092%=      5-min Rain = 0
KHRS 131135Z 26012KT M04/M06 A3006 RMK A01 T10431057  RH  091%=      5-min Rain = 0
KHRS 131140Z 26011KT M04/M06 A3006 RMK A01 T10441058  RH  091%=      5-min Rain = 0
KHRS 131145Z 25011KT M05/M06 A3006 RMK A01 T10451059  RH  091%=      5-min Rain = 0
KHRS 131150Z 25011KT M05/M06 A3006 RMK A01 T10461060  RH  091%=      5-min Rain = 0
KHRS 131155Z 25010KT M05/M06 A3006 RMK A01 T10471061  RH  091%=      5-min Rain = 0
KHRS 131200Z 25010KT M05/M06 A3006 RMK A01 T10471061  RH  091%=      5-min Rain = 0
KHRS 131205Z 24010KT M05/M06 A3006 RMK A01 T10471062  RH  090%=      5-min Rain = 0
KHRS 131210Z 25011KT M05/M06 A3006 RMK A01 T10491064  RH  090%=      5-min Rain = 0
KHRS 131215Z 24010KT M05/M07 A3006 RMK A01 T10511065  RH  091%=      5-min Rain = 0
KHRS 131220Z 24010KT M05/M07 A3005 RMK A01 T10511065  RH  091%=      5-min Rain = 0
KHRS 131225Z 24009KT M05/M07 A3005 RMK A01 T10521066  RH  091%=      5-min Rain = 0
KHRS 131230Z 24009KT M05/M07 A3005 RMK A01 T10531066  RH  091%=      5-min Rain = 0
KHRS 131235Z 24009KT M05/M07 A3005 RMK A01 T10531067  RH  092%=      5-min Rain = 0
KHRS 131240Z 24009KT M05/M07 A3005 RMK A01 T10541068  RH  091%=      5-min Rain = 0
KHRS 131245Z 24010KT M06/M07 A3005 RMK A01 T10551068  RH  091%=      5-min Rain = 0
KHRS 131250Z 24010KT M06/M07 A3005 RMK A01 T10551069  RH  091%=      5-min Rain = 0
KHRS 131255Z 24010KT M06/M07 A3005 RMK A01 T10571070  RH  091%=      5-min Rain = 0
KHRS 131300Z 24011KT M06/M07 A3005 RMK A01 T10561069  RH  091%=      5-min Rain = 0
KHRS 131305Z 26011KT M06/M07 A3006 RMK A01 T10581073  RH  091%=      5-min Rain = 0
KHRS 131310Z 26011KT M06/M08 A3006 RMK A01 T10611075  RH  091%=      5-min Rain = 0
KHRS 131315Z 26011KT M06/M08 A3006 RMK A01 T10621075  RH  092%=      5-min Rain = 0
KHRS 131320Z 26010KT M06/M08 A3006 RMK A01 T10631075  RH  092%=      5-min Rain = 0
KHRS 131325Z 26011KT M06/M07 A3006 RMK A01 T10631074  RH  092%=      5-min Rain = 0
KHRS 131330Z 26012KT M06/M07 A3006 RMK A01 T10601072  RH  092%=      5-min Rain = 0
KHRS 131335Z 26013KT M06/M07 A3005 RMK A01 T10581071  RH  092%=      5-min Rain = 0
KHRS 131340Z 26013KT M06/M07 A3005 RMK A01 T10561070  RH  091%=      5-min Rain = 0
KHRS 131345Z 26013KT M06/M07 A3005 RMK A01 T10561072  RH  090%=      5-min Rain = 0
KHRS 131350Z 26012KT M06/M07 A3005 RMK A01 T10561072  RH  089%=      5-min Rain = 0
KHRS 131355Z 25013KT M06/M07 A3004 RMK A01 T10561073  RH  089%=      5-min Rain = 0
KHRS 131400Z 25013KT M06/M07 A3004 RMK A01 T10571073  RH  089%=      5-min Rain = 0
KHRS 131405Z 25012KT M06/M07 A3004 RMK A01 T10561073  RH  089%=      5-min Rain = 0
KHRS 131410Z 25013KT M06/M07 A3003 RMK A01 T10551072  RH  089%=      5-min Rain = 0
KHRS 131415Z 25013KT M05/M07 A3004 RMK A01 T10531071  RH  089%=      5-min Rain = 0
KHRS 131420Z 25013KT M05/M07 A3004 RMK A01 T10521070  RH  088%=      5-min Rain = 0
KHRS 131425Z 25013KT M05/M07 A3004 RMK A01 T10491068  RH  088%=      5-min Rain = 0
KHRS 131430Z 25013KT M05/M07 A3003 RMK A01 T10451065  RH  087%=      5-min Rain = 0
KHRS 131435Z 26015KT M04/M06 A3003 RMK A01 T10411064  RH  085%=      5-min Rain = 0
KHRS 131440Z 26015KT M04/M06 A3003 RMK A01 T10391063  RH  084%=      5-min Rain = 0
KHRS 131445Z 26013G18KT M04/M06 A3004 RMK A01 T10391064  RH  084%=      5-min Rain = 0
KHRS 131450Z 26012KT M04/M06 A3004 RMK A01 T10381063  RH  084%=      5-min Rain = 0
KHRS 131455Z 26012KT M04/M06 A3004 RMK A01 T10371061  RH  085%=      5-min Rain = 0
KHRS 131500Z 25011KT M04/M06 A3003 RMK A01 T10361059  RH  085%=      5-min Rain = 0
KHRS 131505Z 25011KT M03/M06 A3004 RMK A01 T10341057  RH  085%=      5-min Rain = 0
KHRS 131510Z 25011KT M03/M06 A3003 RMK A01 T10331057  RH  085%=      5-min Rain = 0
KHRS 131515Z 25012KT M03/M06 A3003 RMK A01 T10321056  RH  085%=      5-min Rain = 0
KHRS 131520Z 26012KT M03/M05 A3003 RMK A01 T10301052  RH  085%=      5-min Rain = 0
KHRS 131525Z 26012KT M03/M05 A3004 RMK A01 T10261049  RH  086%=      5-min Rain = 0
KHRS 131530Z 25013KT M02/M04 A3004 RMK A01 T10211044  RH  085%=      5-min Rain = 0
KHRS 131535Z 26014KT M02/M04 A3004 RMK A01 T10191044  RH  084%=      5-min Rain = 0
KHRS 131540Z 26013KT M02/M04 A3004 RMK A01 T10181044  RH  083%=      5-min Rain = 0
KHRS 131545Z 26013KT M02/M04 A3004 RMK A01 T10171042  RH  083%=      5-min Rain = 0
KHRS 131550Z 25014KT M01/M04 A3004 RMK A01 T10141040  RH  083%=      5-min Rain = 0
KHRS 131555Z 25013KT M01/M04 A3004 RMK A01 T10101038  RH  082%=      5-min Rain = 0
KHRS 131600Z 25012KT M01/M04 A3004 RMK A01 T10071038  RH  081%=      5-min Rain = 0
KHRS 131605Z 26014KT M01/M04 A3004 RMK A01 T10071038  RH  080%=      5-min Rain = 0
KHRS 131610Z 26013KT M01/M04 A3004 RMK A01 T10061038  RH  080%=      5-min Rain = 0
KHRS 131615Z 25014KT M00/M04 A3004 RMK A01 T10041036  RH  080%=      5-min Rain = 0
KHRS 131620Z 25014KT 00/M03 A3003 RMK A01 T00011031  RH  080%=      5-min Rain = 0
KHRS 131625Z 26014KT 01/M03 A3004 RMK A01 T00051028  RH  080%=      5-min Rain = 0
KHRS 131630Z 26013KT 01/M03 A3004 RMK A01 T00081025  RH  080%=      5-min Rain = 0
KHRS 131635Z 25014KT 01/M02 A3004 RMK A01 T00131019  RH  080%=      5-min Rain = 0
KHRS 131640Z 26015KT 02/M02 A3004 RMK A01 T00181016  RH  079%=      5-min Rain = 0
KHRS 131645Z 26017KT 02/M02 A3004 RMK A01 T00191021  RH  076%=      5-min Rain = 0
KHRS 131650Z 26017KT 02/M02 A3004 RMK A01 T00201020  RH  076%=      5-min Rain = 0
KHRS 131655Z 26016KT 02/M02 A3003 RMK A01 T00231016  RH  076%=      5-min Rain = 0
KHRS 131700Z 26016KT 03/M01 A3003 RMK A01 T00281013  RH  076%=      5-min Rain = 0
KHRS 131705Z 26015KT 03/M01 A3003 RMK A01 T00321010  RH  075%=      5-min Rain = 0
KHRS 131710Z 26017KT 03/M02 A3002 RMK A01 T00311015  RH  072%=      5-min Rain = 0
KHRS 131715Z 26016KT 03/M01 A3003 RMK A01 T00301013  RH  074%=      5-min Rain = 0
KHRS 131720Z 26018KT 03/M01 A3002 RMK A01 T00321013  RH  073%=      5-min Rain = 0
KHRS 131725Z 26018KT 03/M01 A3002 RMK A01 T00341014  RH  072%=      5-min Rain = 0
KHRS 131730Z 26016KT 04/M01 A3002 RMK A01 T00391010  RH  071%=      5-min Rain = 0
KHRS 131735Z 26014KT 04/M01 A3002 RMK A01 T00391008  RH  072%=      5-min Rain = 0
KHRS 131740Z 25013KT 04/M01 A3002 RMK A01 T00391011  RH  071%=      5-min Rain = 0
KHRS 131745Z 25012KT 04/M01 A3001 RMK A01 T00361012  RH  071%=      5-min Rain = 0
KHRS 131750Z 25012KT 04/M01 A3001 RMK A01 T00391009  RH  072%=      5-min Rain = 0
KHRS 131755Z 26013KT 04/M01 A3001 RMK A01 T00411007  RH  072%=      5-min Rain = 0
KHRS 131800Z 26013KT 05/M01 A30 RMK A01 T00451005  RH  071%=      5-min Rain = 0
KHRS 131805Z 26013KT 05/M00 A30 RMK A01 T00501002  RH  070%=      5-min Rain = 0
KHRS 131810Z 26014KT 05/M00 A2999 RMK A01 T00531004  RH  068%=      5-min Rain = 0
KHRS 131815Z 26012KT 06/00 A2999 RMK A01 T00560000  RH  068%=      5-min Rain = 0
KHRS 131820Z 25012KT 06/M00 A2998 RMK A01 T00591001  RH  066%=      5-min Rain = 0
KHRS 131825Z 25011KT 06/M00 A2998 RMK A01 T00641001  RH  064%=      5-min Rain = 0
KHRS 131830Z 26012KT 07/00 A2998 RMK A01 T00670001  RH  064%=      5-min Rain = 0
KHRS 131835Z 25011KT 07/01 A2997 RMK A01 T00700006  RH  065%=      5-min Rain = 0
KHRS 131840Z 26013KT 07/01 A2997 RMK A01 T00740006  RH  063%=      5-min Rain = 0
KHRS 131845Z 26013KT 08/01 A2996 RMK A01 T00770005  RH  061%=      5-min Rain = 0
KHRS 131850Z 25012KT 08/01 A2996 RMK A01 T00800006  RH  060%=      5-min Rain = 0
KHRS 131855Z 25013KT 08/01 A2995 RMK A01 T00830007  RH  059%=      5-min Rain = 0
KHRS 131900Z 26013KT 09/01 A2995 RMK A01 T00860007  RH  058%=      5-min Rain = 0
KHRS 131905Z 25012KT 09/01 A2995 RMK A01 T00880011  RH  059%=      5-min Rain = 0
KHRS 131910Z 25012KT 09/01 A2995 RMK A01 T00920014  RH  059%=      5-min Rain = 0
KHRS 131915Z 25012KT 10/01 A2994 RMK A01 T00950012  RH  057%=      5-min Rain = 0
KHRS 131920Z 25012KT 10/01 A2994 RMK A01 T00980010  RH  055%=      5-min Rain = 0
KHRS 131925Z 25012KT 10/01 A2993 RMK A01 T01010008  RH  053%=      5-min Rain = 0
KHRS 131930Z 25012KT 10/01 A2993 RMK A01 T01040012  RH  054%=      5-min Rain = 0
KHRS 131935Z 24012KT 11/01 A2992 RMK A01 T01060012  RH  053%=      5-min Rain = 0
KHRS 131940Z 24012KT 11/01 A2992 RMK A01 T01080006  RH  050%=      5-min Rain = 0
KHRS 131945Z 25013KT 11/01 A2991 RMK A01 T01120011  RH  050%=      5-min Rain = 0
KHRS 131950Z 25012KT 12/01 A2991 RMK A01 T01160008  RH  048%=      5-min Rain = 0
KHRS 131955Z 24011KT 12/02 A2991 RMK A01 T01190022  RH  052%=      5-min Rain = 0
KHRS 132000Z 24011KT 12/03 A299 RMK A01 T01190030  RH  055%=      5-min Rain = 0
KHRS 132005Z 23011KT 12/03 A299 RMK A01 T01190032  RH  056%=      5-min Rain = 0
KHRS 132010Z 25013KT 12/03 A299 RMK A01 T01210034  RH  056%=      5-min Rain = 0
KHRS 132015Z 25014KT 12/03 A299 RMK A01 T01210032  RH  055%=      5-min Rain = 0
KHRS 132020Z 25014KT 12/03 A299 RMK A01 T01220030  RH  054%=      5-min Rain = 0
KHRS 132025Z 25014KT 12/03 A299 RMK A01 T01230033  RH  055%=      5-min Rain = 0
KHRS 132030Z 26015KT 13/03 A2991 RMK A01 T01250030  RH  053%=      5-min Rain = 0
KHRS 132035Z 25015KT 13/03 A299 RMK A01 T01260030  RH  053%=      5-min Rain = 0
KHRS 132040Z 26014KT 13/03 A299 RMK A01 T01280034  RH  053%=      5-min Rain = 0
KHRS 132045Z 25014KT 13/04 A299 RMK A01 T01280035  RH  054%=      5-min Rain = 0
KHRS 132050Z 25014KT 13/04 A299 RMK A01 T01300036  RH  054%=      5-min Rain = 0
KHRS 132055Z 25013KT 13/04 A299 RMK A01 T01320037  RH  053%=      5-min Rain = 0
KHRS 132100Z 26013KT 14/03 A299 RMK A01 T01350032  RH  050%=      5-min Rain = 0
KHRS 132105Z 26014KT 14/03 A299 RMK A01 T01380028  RH  048%=      5-min Rain = 0
KHRS 132110Z 27012KT 14/03 A2989 RMK A01 T01380028  RH  048%=      5-min Rain = 0
KHRS 132115Z 27013KT 14/03 A2989 RMK A01 T01390025  RH  047%=      5-min Rain = 0
KHRS 132120Z 26012KT 14/03 A2989 RMK A01 T01390028  RH  048%=      5-min Rain = 0
KHRS 132125Z 26012KT 14/03 A2989 RMK A01 T01400031  RH  048%=      5-min Rain = 0
KHRS 132130Z 26012KT 14/03 A2989 RMK A01 T01400031  RH  048%=      5-min Rain = 0
KHRS 132135Z 26011KT 14/04 A2989 RMK A01 T01420036  RH  050%=      5-min Rain = 0
KHRS 132140Z 26011KT 14/04 A2989 RMK A01 T01410036  RH  050%=      5-min Rain = 0
KHRS 132145Z 26011KT 14/04 A2989 RMK A01 T01410039  RH  051%=      5-min Rain = 0
KHRS 132150Z 27010KT 14/04 A2989 RMK A01 T01430037  RH  049%=      5-min Rain = 0
KHRS 132155Z 26009KT 15/03 A2989 RMK A01 T01460034  RH  048%=      5-min Rain = 0
KHRS 132200Z 26009KT 15/03 A2989 RMK A01 T01450032  RH  047%=      5-min Rain = 0
KHRS 132205Z 26009KT 14/04 A2988 RMK A01 T01440036  RH  049%=      5-min Rain = 0
KHRS 132210Z 26008KT 15/04 A2988 RMK A01 T01480036  RH  048%=      5-min Rain = 0
KHRS 132215Z 26009KT 15/03 A2988 RMK A01 T01500033  RH  046%=      5-min Rain = 0
KHRS 132220Z 26009KT 15/03 A2988 RMK A01 T01490032  RH  046%=      5-min Rain = 0
KHRS 132225Z 26009KT 15/03 A2988 RMK A01 T01470034  RH  047%=      5-min Rain = 0
KHRS 132230Z 25008KT 15/04 A2988 RMK A01 T01470035  RH  048%=      5-min Rain = 0
KHRS 132235Z 25008KT 15/04 A2988 RMK A01 T01480035  RH  047%=      5-min Rain = 0
KHRS 132240Z 24007KT 15/04 A2987 RMK A01 T01490035  RH  047%=      5-min Rain = 0
KHRS 132245Z 24006KT 15/04 A2987 RMK A01 T01500037  RH  048%=      5-min Rain = 0
KHRS 132250Z 24005KT 15/04 A2987 RMK A01 T01490041  RH  049%=      5-min Rain = 0
KHRS 132255Z 24004KT 15/04 A2987 RMK A01 T01500043  RH  049%=      5-min Rain = 0
KHRS 132300Z 23005KT 15/05 A2987 RMK A01 T01480047  RH  051%=      5-min Rain = 0
KHRS 132305Z 23005KT 14/05 A2987 RMK A01 T01440048  RH  053%=      5-min Rain = 0
KHRS 132310Z 22005KT 14/05 A2987 RMK A01 T01390050  RH  056%=      5-min Rain = 0
KHRS 132315Z 23005KT 13/05 A2987 RMK A01 T01330051  RH  058%=      5-min Rain = 0
KHRS 132320Z 23006KT 13/05 A2987 RMK A01 T01310048  RH  058%=      5-min Rain = 0
KHRS 132325Z 24006KT 13/05 A2987 RMK A01 T01310049  RH  058%=      5-min Rain = 0
KHRS 132330Z 24006KT 13/05 A2987 RMK A01 T01300048  RH  058%=      5-min Rain = 0
KHRS 132335Z 24006KT 13/05 A2988 RMK A01 T01290048  RH  058%=      5-min Rain = 0
KHRS 132340Z 24007KT 13/05 A2988 RMK A01 T01270046  RH  059%=      5-min Rain = 0
KHRS 132345Z 24006KT 13/05 A2988 RMK A01 T01250046  RH  059%=      5-min Rain = 0
KHRS 132350Z 25006KT 12/05 A2988 RMK A01 T01220045  RH  060%=      5-min Rain = 0
KHRS 132355Z 25008KT 11/05 A2989 RMK A01 T01120045  RH  064%=      5-min Rain = 0
KHRS 140000Z 25008KT 10/04 A2989 RMK A01 T01040042  RH  066%=      5-min Rain = 0
KHRS 140005Z 25007KT 10/04 A2989 RMK A01 T00990040  RH  067%=      5-min Rain = 0
KHRS 140010Z 25008KT 09/04 A2989 RMK A01 T00910037  RH  070%=      5-min Rain = 0
KHRS 140015Z 25008KT 09/04 A2989 RMK A01 T00860036  RH  071%=      5-min Rain = 0
KHRS 140020Z 25008KT 08/04 A2989 RMK A01 T00820036  RH  074%=      5-min Rain = 0
KHRS 140025Z 25008KT 09/04 A2988 RMK A01 T00870036  RH  071%=      5-min Rain = 0
KHRS 140030Z 24008KT 09/03 A2988 RMK A01 T00900032  RH  068%=      5-min Rain = 0
KHRS 140035Z 24008KT 09/03 A2988 RMK A01 T00900031  RH  067%=      5-min Rain = 0
KHRS 140040Z 23007KT 08/03 A2988 RMK A01 T00840030  RH  070%=      5-min Rain = 0
KHRS 140045Z 23008KT 08/03 A2988 RMK A01 T00780030  RH  073%=      5-min Rain = 0
KHRS 140050Z 24008KT 08/03 A2988 RMK A01 T00780026  RH  071%=      5-min Rain = 0
KHRS 140055Z 24007KT 08/03 A2988 RMK A01 T00760025  RH  071%=      5-min Rain = 0
KHRS 140100Z 25008KT 08/03 A2988 RMK A01 T00770025  RH  070%=      5-min Rain = 0
KHRS 140105Z 25008KT 08/02 A2988 RMK A01 T00790024  RH  069%=      5-min Rain = 0
KHRS 140110Z 25008KT 08/02 A2988 RMK A01 T00790023  RH  068%=      5-min Rain = 0
KHRS 140115Z 25008KT 07/02 A2988 RMK A01 T00740021  RH  070%=      5-min Rain = 0
KHRS 140120Z 25007KT 07/02 A2988 RMK A01 T00670018  RH  072%=      5-min Rain = 0
KHRS 140125Z 25006KT 07/02 A2987 RMK A01 T00650020  RH  074%=      5-min Rain = 0
KHRS 140130Z 26006KT 06/02 A2988 RMK A01 T00630018  RH  074%=      5-min Rain = 0
KHRS 140135Z 27007KT 05/01 A2988 RMK A01 T00530012  RH  076%=      5-min Rain = 0
KHRS 140140Z 27008KT 05/01 A2988 RMK A01 T00480014  RH  080%=      5-min Rain = 0
KHRS 140145Z 27007KT 05/01 A2988 RMK A01 T00460014  RH  080%=      5-min Rain = 0
KHRS 140150Z 27006KT 04/01 A2988 RMK A01 T00430011  RH  080%=      5-min Rain = 0
KHRS 140155Z 26006KT 04/01 A2988 RMK A01 T00400010  RH  082%=      5-min Rain = 0
KHRS 140200Z 25007KT 05/01 A2987 RMK A01 T00450014  RH  081%=      5-min Rain = 0
KHRS 140205Z 24007KT 05/01 A2987 RMK A01 T00470014  RH  080%=      5-min Rain = 0
KHRS 140210Z 23006KT 05/01 A2987 RMK A01 T00470011  RH  079%=      5-min Rain = 0
KHRS 140215Z 23007KT 04/01 A2987 RMK A01 T00410009  RH  081%=      5-min Rain = 0
KHRS 140220Z 24007KT 04/01 A2987 RMK A01 T00410010  RH  082%=      5-min Rain = 0
KHRS 140225Z 25007KT 04/01 A2987 RMK A01 T00390010  RH  082%=      5-min Rain = 0
KHRS 140230Z 24007KT 04/01 A2986 RMK A01 T00400011  RH  082%=      5-min Rain = 0
KHRS 140235Z 24006KT 04/01 A2986 RMK A01 T00400009  RH  081%=      5-min Rain = 0
KHRS 140240Z 24007KT 04/01 A2986 RMK A01 T00380007  RH  082%=      5-min Rain = 0
KHRS 140245Z 25007KT 04/01 A2986 RMK A01 T00390008  RH  081%=      5-min Rain = 0
KHRS 140250Z 26007KT 04/00 A2986 RMK A01 T00360003  RH  080%=      5-min Rain = 0
KHRS 140255Z 26007KT 03/M00 A2986 RMK A01 T00281002  RH  082%=      5-min Rain = 0
KHRS 140300Z 26006KT 02/M00 A2985 RMK A01 T00221004  RH  083%=      5-min Rain = 0
KHRS 140305Z 26006KT 02/M00 A2985 RMK A01 T00221001  RH  086%=      5-min Rain = 0
KHRS 140310Z 26006KT 02/M00 A2985 RMK A01 T00211002  RH  086%=      5-min Rain = 0
KHRS 140315Z 27006KT 02/M00 A2985 RMK A01 T00211001  RH  086%=      5-min Rain = 0
KHRS 140320Z 28007KT 02/M00 A2986 RMK A01 T00201003  RH  086%=      5-min Rain = 0
KHRS 140325Z 28007KT 02/M01 A2986 RMK A01 T00161007  RH  086%=      5-min Rain = 0
KHRS 140330Z 28007KT 01/M01 A2986 RMK A01 T00111010  RH  087%=      5-min Rain = 0
KHRS 140335Z 27006KT 01/M01 A2986 RMK A01 T00111007  RH  089%=      5-min Rain = 0
KHRS 140340Z 26006KT 01/M01 A2985 RMK A01 T00121005  RH  089%=      5-min Rain = 0
KHRS 140345Z 26006KT 02/M00 A2985 RMK A01 T00161003  RH  088%=      5-min Rain = 0
KHRS 140350Z 27006KT 02/M01 A2985 RMK A01 T00161006  RH  086%=      5-min Rain = 0
KHRS 140355Z 28007KT 01/M01 A2985 RMK A01 T00111009  RH  087%=      5-min Rain = 0
KHRS 140400Z 28007KT 01/M01 A2985 RMK A01 T00101010  RH  088%=      5-min Rain = 0
KHRS 140405Z 29006KT 01/M01 A2984 RMK A01 T00081011  RH  088%=      5-min Rain = 0
KHRS 140410Z 29004KT 01/M01 A2984 RMK A01 T00081010  RH  089%=      5-min Rain = 0
KHRS 140415Z 26002KT 01/M01 A2983 RMK A01 T00091008  RH  089%=      5-min Rain = 0
KHRS 140420Z 26004KT 01/M01 A2983 RMK A01 T00101008  RH  089%=      5-min Rain = 0
KHRS 140425Z 26003KT 01/M00 A2983 RMK A01 T00141004  RH  089%=      5-min Rain = 0
KHRS 140430Z 24003KT 02/M00 A2983 RMK A01 T00161003  RH  088%=      5-min Rain = 0
KHRS 140435Z 25005KT 02/M00 A2983 RMK A01 T00171004  RH  087%=      5-min Rain = 0
KHRS 140440Z 27007KT 01/M01 A2984 RMK A01 T00121009  RH  086%=      5-min Rain = 0
KHRS 140445Z 27009KT 01/M01 A2984 RMK A01 T00081010  RH  089%=      5-min Rain = 0
KHRS 140450Z 27010KT 01/M01 A2984 RMK A01 T00121005  RH  090%=      5-min Rain = 0
KHRS 140455Z 28010KT 01/M01 A2985 RMK A01 T00141005  RH  088%=      5-min Rain = 0
KHRS 140500Z 27008KT 02/M01 A2985 RMK A01 T00151005  RH  088%=      5-min Rain = 0
KHRS 140505Z 26009KT 01/M01 A2984 RMK A01 T00141007  RH  087%=      5-min Rain = 0
KHRS 140510Z 26010KT 01/M01 A2984 RMK A01 T00131008  RH  087%=      5-min Rain = 0
KHRS 140515Z 26009KT 01/M01 A2984 RMK A01 T00141007  RH  087%=      5-min Rain = 0
KHRS 140520Z 27008KT 01/M01 A2985 RMK A01 T00131008  RH  087%=      5-min Rain = 0
KHRS 140525Z 27009KT 01/M01 A2984 RMK A01 T00121008  RH  087%=      5-min Rain = 0
KHRS 140530Z 26010KT 01/M01 A2983 RMK A01 T00141007  RH  087%=      5-min Rain = 0
KHRS 140535Z 26009KT 02/M01 A2983 RMK A01 T00151007  RH  086%=      5-min Rain = 0
KHRS 140540Z 27009KT 02/M01 A2983 RMK A01 T00151007  RH  086%=      5-min Rain = 0
KHRS 140545Z 27009KT 02/M01 A2982 RMK A01 T00191005  RH  085%=      5-min Rain = 0
KHRS 140550Z 28009KT 02/M00 A2982 RMK A01 T00211004  RH  084%=      5-min Rain = 0
KHRS 140555Z 27010KT 02/M00 A2982 RMK A01 T00231004  RH  084%=      5-min Rain = 0

Page generated in 0.0115 seconds.